Cattown, New York
Current Conditions -  °F | °C
As of 3:55 AM on Friday 24 Oct 2014 (Local Time) from KNY0 Reporting Station
Overcast Overcast  
Wind Chill: 38°   Ceiling: 3000
Heat Index: 42°   Visibility: 10mi
Dew Point: 41°   Wind: 7mph
Humidity: 95%   Direction: 270°W
Pressure: 29.81"   Gusts: NA
Location:  42.7373°N, 74.9926°W
Report Text: KNY0 240755Z AUTO 27006KT 10SM BKN030 OVC038 06/05 A2981 RMK AO2 P0001 T00570050
Loading
Personal Weather Stations






























Interactive Weather Map
Tropical Storm Tracking
New forecast layout! Learn more

10-Day Weather Forecast

Advertisements
Track Severe Weather on mobile